ドバイ の空港の天気 - METARとTAF

ドバイ国際空港 ( OMDB / DXB ) - アラブ首長国連邦 ドバイ
飛行場実況気象(Metar)
観測時間01/19 15:00 GST (01/19 11:00 UTC)
風向・風速西北西 7m/s
視程4000m
天気現象風塵
全天の8割程度の雲 雲底高度 910m
気温21℃
湿度53%
気圧1016hPa
METAROMDB 191100Z 29014KT 250V330 4000 DU BKN030 21/11 Q1016 NOSIG
過去の天気等 Google飛行場航空写真 Wunderground天気予報

過去48時間のMETAR

飛行場予報(TAF)
発表時間: 1/19 09:01 GST (1/19 05:01 UTC)
予報対象時間: 19日10時 GST ~ 20日16時 GST
風向・風速西 8m/s
視程7000m
全天の4割程度の雲 雲底高度 910m
19日10時 GST から 確率 30% で
視程4000m
天気現象風塵
20日0時 GST から 確率 30% で
風向・風速南南西 4m/s
20日6時 GST から 確率 30% で
視程4000m
天気現象風塵
TAF OMDB 190501Z 1906/2012 28016KT 7000 SCT030
PROB30 1906/1914 4000 DU
PROB30 1920/2005 21007KT
PROB30 2002/2012 4000 DU